createdAt,value
2022-12-04T07:31:27.209Z,40.50
2022-12-04T07:33:55.431Z,38.00
2022-12-04T07:36:27.033Z,41.00
2022-12-04T07:38:57.793Z,38.00
2022-12-04T07:41:25.101Z,36.75
2022-12-04T07:43:53.292Z,33.75
2022-12-04T07:46:23.773Z,34.75
2022-12-04T07:48:51.572Z,36.75
2022-12-04T07:51:24.421Z,46.00
2022-12-04T07:53:53.637Z,42.50
2022-12-04T07:56:21.394Z,37.25
2022-12-04T07:58:49.017Z,39.00
2022-12-04T08:01:22.698Z,47.75
2022-12-04T08:03:53.519Z,44.50
2022-12-04T08:06:23.195Z,45.75
2022-12-04T08:08:52.112Z,40.75
2022-12-04T08:11:22.623Z,44.25
2022-12-04T08:13:55.627Z,50.50
2022-12-04T08:16:23.192Z,13.25
2022-12-04T08:18:51.443Z,39.75
2022-12-04T08:21:21.616Z,36.50
2022-12-04T08:23:51.457Z,38.75
2022-12-04T08:26:20.059Z,42.50
2022-12-04T08:28:48.036Z,37.00
2022-12-04T08:31:18.233Z,35.50
2022-12-04T08:33:47.251Z,40.75
2022-12-04T08:36:17.527Z,48.75
2022-12-04T08:38:45.243Z,42.25
2022-12-04T08:41:15.567Z,41.00
2022-12-04T08:43:43.064Z,36.75
2022-12-04T08:46:16.234Z,48.25
2022-12-04T08:48:44.772Z,41.25
2022-12-04T08:51:17.971Z,31.75
2022-12-04T08:53:45.552Z,49.75
2022-12-04T08:56:13.468Z,48.75
2022-12-04T08:58:40.908Z,41.00
2022-12-04T09:01:12.796Z,39.50
2022-12-04T09:03:41.182Z,47.25
2022-12-04T09:06:10.634Z,34.75
2022-12-04T09:08:38.318Z,48.75
2022-12-04T09:11:10.018Z,45.00
2022-12-04T09:13:38.056Z,36.25
2022-12-04T09:16:09.206Z,44.50
2022-12-04T09:18:38.016Z,40.25
2022-12-04T09:21:11.242Z,38.50
2022-12-04T09:23:40.016Z,40.50
2022-12-04T09:26:19.194Z,46.33
2022-12-04T09:28:47.349Z,48.50
2022-12-04T09:31:14.719Z,48.25
2022-12-04T09:33:42.143Z,43.25
2022-12-04T09:36:09.392Z,41.75
2022-12-04T09:38:39.342Z,43.75
2022-12-04T09:41:32.096Z,44.75
2022-12-04T09:44:16.432Z,39.50
2022-12-04T09:46:52.280Z,46.00
2022-12-04T09:49:29.660Z,44.50
2022-12-04T09:52:01.659Z,52.75
2022-12-04T09:54:39.899Z,34.50
2022-12-04T09:57:22.333Z,44.00
2022-12-04T09:59:52.179Z,45.50
2022-12-04T10:02:29.217Z,41.75
2022-12-04T10:04:57.709Z,48.00
2022-12-04T10:07:41.334Z,46.25
2022-12-04T10:10:24.468Z,43.75
2022-12-04T10:13:25.689Z,39.50
2022-12-04T10:15:56.401Z,44.50
2022-12-04T10:18:36.370Z,47.50
2022-12-04T10:21:43.807Z,52.50
2022-12-04T10:24:38.674Z,42.25
2022-12-04T10:27:40.005Z,44.00
2022-12-04T10:30:53.179Z,46.75
2022-12-04T10:33:34.189Z,35.25
2022-12-04T10:36:02.378Z,36.50
2022-12-04T10:38:35.601Z,53.25
2022-12-04T10:41:14.937Z,45.00
2022-12-04T10:43:46.035Z,45.75
2022-12-04T10:46:23.742Z,30.50
2022-12-04T10:48:55.426Z,41.25
2022-12-04T10:51:24.236Z,53.25
2022-12-04T10:53:52.843Z,51.50
2022-12-04T10:56:26.109Z,36.25
2022-12-04T10:59:03.087Z,46.00
2022-12-04T11:01:33.253Z,39.50
2022-12-04T11:04:08.768Z,38.67
2022-12-04T11:06:36.355Z,48.75
2022-12-04T11:09:04.683Z,49.75
2022-12-04T11:11:34.927Z,37.75
2022-12-04T11:14:12.850Z,41.75
2022-12-04T11:16:44.954Z,51.00
2022-12-04T11:19:41.533Z,57.25
2022-12-04T11:22:16.170Z,30.50
2022-12-04T11:24:49.699Z,40.50
2022-12-04T11:27:34.416Z,40.00
2022-12-04T11:30:07.750Z,48.25
2022-12-04T11:32:36.253Z,47.50
2022-12-04T11:35:17.793Z,57.25
2022-12-04T11:38:10.900Z,52.50
2022-12-04T11:40:38.721Z,38.50
2022-12-04T11:43:13.755Z,35.75
2022-12-04T11:45:41.787Z,49.50
2022-12-04T11:48:17.034Z,54.50
2022-12-04T11:51:15.449Z,43.25
2022-12-04T11:53:50.719Z,45.50
2022-12-04T11:56:25.305Z,43.50
2022-12-04T11:59:30.645Z,44.25
2022-12-04T12:01:58.862Z,44.75
2022-12-04T12:05:04.245Z,41.50
2022-12-04T12:08:02.944Z,45.50
2022-12-04T12:10:36.858Z,40.50
2022-12-04T12:13:17.341Z,48.75
2022-12-04T12:16:01.402Z,52.00
2022-12-04T12:18:29.037Z,34.75
2022-12-04T12:20:56.054Z,52.75
2022-12-04T12:23:40.945Z,58.50
2022-12-04T12:26:16.949Z,49.00
2022-12-04T12:28:47.117Z,55.25
2022-12-04T12:31:33.096Z,62.25
2022-12-04T12:34:20.751Z,53.00
2022-12-04T12:36:50.953Z,47.25
2022-12-04T12:39:29.918Z,55.25
2022-12-04T12:42:01.417Z,46.25
2022-12-04T12:44:51.071Z,51.75
2022-12-04T12:47:24.108Z,52.50
2022-12-04T12:50:06.813Z,55.00
2022-12-04T12:52:57.316Z,51.50
2022-12-04T12:55:34.479Z,57.50
2022-12-04T12:58:21.629Z,60.25
2022-12-04T13:00:58.568Z,64.50
2022-12-04T13:03:50.846Z,56.25
2022-12-04T13:06:28.824Z,51.50
2022-12-04T13:09:14.414Z,61.25
2022-12-04T13:11:43.714Z,54.25
2022-12-04T13:14:13.885Z,63.75
2022-12-04T13:16:47.128Z,53.50
2022-12-04T13:19:28.854Z,56.25
2022-12-04T13:22:11.390Z,59.00
2022-12-04T13:28:44.680Z,59.75
2022-12-04T13:31:53.903Z,58.75
2022-12-04T13:34:49.240Z,59.00
2022-12-04T13:37:27.627Z,55.75
2022-12-04T13:40:00.606Z,53.75
2022-12-04T13:42:29.437Z,56.00
2022-12-04T13:45:02.249Z,53.50
2022-12-04T13:47:36.907Z,63.75
2022-12-04T13:50:19.291Z,54.25
2022-12-04T13:52:54.157Z,51.75
2022-12-04T13:55:33.642Z,63.25
2022-12-04T13:58:24.325Z,60.75
2022-12-04T14:01:21.548Z,60.50
2022-12-04T14:03:57.789Z,56.00
2022-12-04T14:06:34.576Z,49.75
2022-12-04T14:09:06.220Z,58.50
2022-12-04T14:11:46.260Z,55.50
2022-12-04T14:17:05.510Z,44.50
2022-12-04T14:19:45.832Z,54.25
2022-12-04T14:22:40.839Z,59.75
2022-12-04T14:25:23.051Z,61.00
2022-12-04T14:27:54.562Z,65.50
2022-12-04T14:30:24.772Z,64.75
2022-12-04T14:33:08.405Z,64.00
2022-12-04T14:35:53.848Z,68.50
2022-12-04T14:38:25.693Z,61.75
2022-12-04T14:41:02.014Z,64.00
2022-12-04T14:43:41.468Z,58.25
2022-12-04T14:46:31.867Z,63.25
2022-12-04T14:49:23.704Z,59.75
2022-12-04T14:52:14.449Z,62.50
2022-12-04T14:54:50.877Z,65.75
2022-12-04T14:58:22.006Z,65.00
2022-12-04T15:00:52.194Z,58.50
2022-12-04T15:03:19.867Z,59.00
2022-12-04T15:05:47.955Z,60.00
2022-12-04T15:08:15.653Z,57.50
2022-12-04T15:11:09.591Z,63.75
2022-12-04T15:13:38.740Z,53.25
2022-12-04T15:16:17.064Z,54.25
2022-12-04T15:18:57.729Z,50.50
2022-12-04T15:21:34.727Z,52.00
2022-12-04T15:24:07.531Z,56.75
2022-12-04T15:26:40.138Z,60.00
2022-12-04T15:29:09.474Z,62.75
2022-12-04T15:31:48.971Z,70.00
2022-12-04T15:34:21.689Z,73.75
2022-12-04T15:37:09.423Z,69.25
2022-12-04T15:39:38.360Z,67.25
2022-12-04T15:42:24.134Z,62.50
2022-12-04T15:45:03.313Z,60.25
2022-12-04T15:47:49.790Z,60.50
2022-12-04T15:50:16.856Z,62.50
2022-12-04T15:53:05.846Z,57.25
2022-12-04T15:55:39.845Z,62.25
2022-12-04T15:58:39.535Z,41.25
2022-12-04T16:01:09.741Z,45.00
2022-12-04T16:03:43.002Z,58.50
2022-12-04T16:06:33.246Z,55.25
2022-12-04T16:09:20.690Z,59.00
2022-12-04T16:12:00.104Z,60.00
2022-12-04T16:14:29.277Z,53.50
2022-12-04T16:17:05.612Z,63.75
2022-12-04T16:19:39.281Z,64.50
2022-12-04T16:22:26.717Z,60.00
2022-12-04T16:24:55.088Z,60.00
2022-12-04T16:27:24.834Z,63.75
2022-12-04T16:29:53.366Z,58.00
2022-12-04T16:32:30.723Z,62.50
2022-12-04T16:35:03.244Z,63.00
2022-12-04T16:37:32.003Z,55.75
2022-12-04T16:40:13.423Z,55.75
2022-12-04T16:42:42.402Z,57.00
2022-12-04T16:45:27.839Z,56.25
2022-12-04T16:47:55.427Z,64.75
2022-12-04T16:50:23.309Z,54.75
2022-12-04T16:52:50.617Z,53.00
2022-12-04T16:55:31.091Z,57.00
2022-12-04T16:57:58.159Z,59.50
2022-12-04T17:00:25.950Z,58.50
2022-12-04T17:02:53.794Z,59.75
2022-12-04T17:05:24.752Z,67.00
2022-12-04T17:07:52.709Z,63.25
2022-12-04T17:10:23.923Z,53.75
2022-12-04T17:12:55.519Z,60.00
2022-12-04T17:15:23.437Z,65.50
2022-12-04T17:17:51.208Z,60.50
2022-12-04T17:20:20.813Z,51.00
2022-12-04T17:22:48.772Z,55.50
2022-12-04T17:25:17.497Z,58.00
2022-12-04T17:27:44.818Z,51.75
2022-12-04T17:30:13.520Z,63.00
2022-12-04T17:32:40.625Z,52.00
2022-12-04T17:35:11.527Z,61.50
